Rosedale, New York
Current Conditions -  °F | °C
As of 11:51 AM on Saturday 25 Oct 2014 (Local Time) from KJFK Reporting Station
Few Clouds Few Clouds  
Wind Chill: 62°   Ceiling: Unl
Heat Index: 62°   Visibility: 10mi
Dew Point: 40°   Wind: 10mph
Humidity: 44%   Direction: 260°W
Pressure: 29.83"   Gusts: NA
Location:  40.66°N, 73.73°W
Report Text: KJFK 251551Z 26009KT 10SM FEW260 17/04 A2983 RMK AO2 SLP101 T01670044
Loading
Personal Weather Stations






























Interactive Weather Map
Tropical Storm Tracking
New forecast layout! Learn more

10-Day Weather Forecast

Advertisements
Track Severe Weather on mobile